Time;durP1;ratioP1;P1;durP2;ratioP2;P2;SDS_P1;SDS_P2;PMS_P1;PMS_P2;Temp;Humidity;BMP_temperature;BMP_pressure;BME280_temperature;BME280_humidity;BME280_pressure;Samples;Min_cycle;Max_cycle;Signal;HPM_P1;HPM_P2
2022/07/17 00:01:05;;;;;;;8.75;3.10;;;12.10;99.90;;;;;;6214879;23;20017;-76
2022/07/17 00:03:31;;;;;;;8.13;4.18;;;12.10;99.90;;;;;;6239662;23;20015;-78
2022/07/17 00:05:57;;;;;;;11.05;3.85;;;12.10;99.90;;;;;;6238274;23;20032;-75
2022/07/17 00:08:23;;;;;;;7.40;2.63;;;12.10;99.90;;;;;;6213643;23;20016;-76
2022/07/17 00:10:49;;;;;;;5.00;3.20;;;12.10;99.90;;;;;;6210365;23;20016;-76
2022/07/17 00:13:15;;;;;;;9.65;3.20;;;12.10;99.90;;;;;;6187054;23;20056;-77
2022/07/17 00:15:41;;;;;;;11.38;2.88;;;12.10;99.90;;;;;;6236719;23;20012;-78
2022/07/17 00:18:07;;;;;;;5.57;3.35;;;12.10;99.90;;;;;;6211376;23;20022;-78
2022/07/17 00:20:34;;;;;;;7.25;3.08;;;12.10;99.90;;;;;;6234975;23;20013;-77
2022/07/17 00:22:59;;;;;;;7.60;3.20;;;12.10;99.90;;;;;;6208667;23;20043;-77
2022/07/17 00:25:26;;;;;;;15.77;3.35;;;12.10;99.90;;;;;;6187084;23;20381;-77
2022/07/17 00:27:52;;;;;;;4.40;2.70;;;12.00;99.90;;;;;;6236538;23;20388;-78
2022/07/17 00:30:19;;;;;;;7.03;3.53;;;12.10;99.90;;;;;;6237059;23;20074;-78
2022/07/17 00:32:45;;;;;;;4.60;2.72;;;12.00;99.90;;;;;;6234369;23;20016;-76
2022/07/17 00:35:11;;;;;;;8.15;3.45;;;12.00;99.90;;;;;;6237022;23;20024;-76
2022/07/17 00:37:41;;;;;;;6.50;3.08;;;12.00;99.90;;;;;;6236098;23;20021;-77
2022/07/17 00:40:09;;;;;;;6.15;3.03;;;12.00;99.90;;;;;;6236664;23;20054;-76
2022/07/17 00:42:35;;;;;;;9.63;3.10;;;11.90;99.90;;;;;;6236121;23;20122;-78
2022/07/17 00:45:00;;;;;;;9.75;3.08;;;12.10;99.90;;;;;;6211333;23;20095;-77
2022/07/17 00:47:26;;;;;;;6.78;3.10;;;11.90;99.90;;;;;;6235179;23;20013;-79
2022/07/17 00:49:52;;;;;;;8.35;3.25;;;11.90;99.90;;;;;;6236123;23;20020;-77
2022/07/17 00:52:18;;;;;;;4.45;3.03;;;11.90;99.90;;;;;;6238583;23;20012;-77
2022/07/17 00:54:45;;;;;;;9.13;3.60;;;11.90;99.90;;;;;;6237487;23;20098;-77
2022/07/17 00:57:13;;;;;;;6.95;3.45;;;11.90;99.90;;;;;;6235376;23;20421;-77
2022/07/17 00:59:39;;;;;;;6.85;3.47;;;11.90;99.90;;;;;;6235168;23;20468;-79
2022/07/17 01:02:07;;;;;;;8.70;3.75;;;11.90;99.90;;;;;;6212449;23;20016;-78
2022/07/17 01:04:36;;;;;;;6.25;3.55;;;11.90;99.90;;;;;;6239469;23;20286;-77
2022/07/17 01:07:04;;;;;;;7.00;3.55;;;11.90;99.90;;;;;;6212754;23;20012;-79
2022/07/17 01:09:31;;;;;;;5.20;3.50;;;11.90;99.90;;;;;;6238708;23;20459;-79
2022/07/17 01:11:57;;;;;;;4.85;3.17;;;11.80;99.90;;;;;;6212510;23;20020;-77
2022/07/17 01:14:24;;;;;;;7.63;3.40;;;11.80;99.90;;;;;;6214099;23;20061;-76
2022/07/17 01:16:51;;;;;;;6.28;3.45;;;11.80;99.90;;;;;;6234524;23;20027;-78
2022/07/17 01:19:18;;;;;;;6.70;3.70;;;11.80;99.90;;;;;;6237108;23;20022;-77
2022/07/17 01:21:46;;;;;;;7.80;3.53;;;11.80;99.90;;;;;;6212606;23;20016;-76
2022/07/17 01:24:12;;;;;;;8.05;3.38;;;11.80;99.90;;;;;;6212481;23;20019;-77
2022/07/17 01:26:41;;;;;;;4.57;3.40;;;11.80;99.90;;;;;;6237459;23;20008;-79
2022/07/17 01:29:10;;;;;;;6.38;3.85;;;11.80;99.90;;;;;;6237836;23;20364;-79
2022/07/17 01:31:36;;;;;;;6.05;3.58;;;11.80;99.90;;;;;;6214126;23;20051;-80
2022/07/17 01:34:04;;;;;;;5.88;3.03;;;11.80;99.90;;;;;;6214357;23;20016;-79
2022/07/17 01:36:30;;;;;;;4.60;3.45;;;11.80;99.90;;;;;;6240534;23;20020;-78
2022/07/17 01:38:56;;;;;;;8.40;3.47;;;11.80;99.90;;;;;;6185797;23;20023;-76
2022/07/17 01:41:22;;;;;;;5.88;3.47;;;11.70;99.90;;;;;;6213077;23;20008;-76
2022/07/17 01:43:48;;;;;;;5.25;3.25;;;11.80;99.90;;;;;;6210905;23;20023;-76
2022/07/17 01:46:14;;;;;;;6.18;3.75;;;11.70;99.90;;;;;;6212215;23;20016;-74
2022/07/17 01:48:40;;;;;;;5.32;3.28;;;11.70;99.90;;;;;;6212165;23;20012;-74
2022/07/17 01:51:06;;;;;;;5.97;3.50;;;11.70;99.90;;;;;;6239402;23;20107;-75
2022/07/17 01:53:32;;;;;;;5.45;3.60;;;11.70;99.90;;;;;;6188291;23;20012;-76
2022/07/17 01:56:03;;;;;;;6.10;3.70;;;11.60;99.90;;;;;;6238748;23;20012;-76
2022/07/17 01:58:29;;;;;;;9.27;4.40;;;11.50;99.90;;;;;;6237556;23;20016;-74
2022/07/17 02:00:55;;;;;;;6.85;3.47;;;11.60;99.90;;;;;;6214150;23;20019;-76
2022/07/17 02:03:21;;;;;;;8.05;4.00;;;11.60;99.90;;;;;;6189226;23;20012;-76
2022/07/17 02:05:46;;;;;;;5.95;3.30;;;11.60;99.90;;;;;;6188647;23;20095;-74
2022/07/17 02:08:12;;;;;;;5.28;3.33;;;11.50;99.90;;;;;;6189816;23;20019;-73
2022/07/17 02:10:38;;;;;;;11.32;4.10;;;11.50;99.90;;;;;;6239292;23;20016;-75
2022/07/17 02:13:04;;;;;;;4.85;3.00;;;11.50;99.90;;;;;;6187700;23;20016;-75
2022/07/17 02:15:29;;;;;;;9.05;3.38;;;11.50;99.90;;;;;;6240662;23;20600;-76
2022/07/17 02:17:56;;;;;;;6.90;3.78;;;11.50;99.90;;;;;;6215927;23;20016;-76
2022/07/17 02:20:22;;;;;;;7.40;2.97;;;11.50;99.90;;;;;;6241467;23;20329;-77
2022/07/17 02:22:47;;;;;;;6.80;3.45;;;11.40;99.90;;;;;;6238418;23;20023;-75
2022/07/17 02:25:13;;;;;;;4.47;2.92;;;11.30;99.90;;;;;;6188227;23;20019;-76
2022/07/17 02:27:40;;;;;;;4.28;2.83;;;11.20;99.90;;;;;;6212725;23;20333;-76
2022/07/17 02:30:12;;;;;;;5.00;2.80;;;11.30;99.90;;;;;;6211439;23;20703;-75
2022/07/17 02:32:38;;;;;;;7.13;3.78;;;11.30;99.90;;;;;;6240104;23;20646;-75
2022/07/17 02:35:05;;;;;;;6.72;3.00;;;11.30;99.90;;;;;;6239932;23;20027;-75
2022/07/17 02:37:31;;;;;;;5.80;3.00;;;11.30;99.90;;;;;;6240702;23;20091;-74
2022/07/17 02:39:58;;;;;;;5.88;2.90;;;11.40;99.90;;;;;;6190583;23;20051;-76
2022/07/17 02:42:26;;;;;;;4.43;3.13;;;11.40;99.90;;;;;;6189110;23;20202;-77
2022/07/17 02:44:52;;;;;;;7.82;3.85;;;11.40;99.90;;;;;;6239676;23;20087;-74
2022/07/17 02:47:37;;;;;;;6.90;3.83;;;11.50;99.90;;;;;;6239628;23;20012;-75
2022/07/17 02:50:08;;;;;;;6.63;3.63;;;11.50;99.90;;;;;;6239898;23;20337;-74
2022/07/17 02:52:34;;;;;;;6.65;3.47;;;11.50;99.90;;;;;;6213593;23;20014;-76
2022/07/17 02:55:00;;;;;;;8.15;4.25;;;11.50;99.90;;;;;;6212947;23;20065;-76
2022/07/17 02:57:26;;;;;;;6.78;4.60;;;11.50;99.90;;;;;;6240335;23;20439;-77
2022/07/17 02:59:52;;;;;;;7.70;4.00;;;11.60;99.90;;;;;;6238515;23;20054;-77
2022/07/17 03:02:17;;;;;;;6.72;3.72;;;11.60;99.90;;;;;;6213438;23;20353;-75
2022/07/17 03:04:43;;;;;;;4.97;3.63;;;11.50;99.90;;;;;;6240607;23;20406;-75
2022/07/17 03:07:09;;;;;;;4.78;3.60;;;11.50;99.90;;;;;;6190772;23;20091;-75
2022/07/17 03:09:35;;;;;;;6.63;3.88;;;11.40;99.90;;;;;;6241550;23;20047;-75
2022/07/17 03:12:00;;;;;;;7.50;3.97;;;11.40;99.90;;;;;;6212512;23;20012;-76
2022/07/17 03:14:26;;;;;;;7.80;4.65;;;11.40;99.90;;;;;;6214919;23;20019;-74
2022/07/17 03:16:52;;;;;;;8.18;4.00;;;11.40;99.90;;;;;;6239738;23;20044;-75
2022/07/17 03:19:18;;;;;;;9.82;4.65;;;11.30;99.90;;;;;;6215065;23;20016;-75
2022/07/17 03:21:44;;;;;;;6.38;3.45;;;11.30;99.90;;;;;;6190742;23;20012;-75
2022/07/17 03:24:10;;;;;;;4.45;3.22;;;11.30;99.90;;;;;;6239378;23;20517;-75
2022/07/17 03:26:36;;;;;;;6.72;3.72;;;11.10;99.90;;;;;;6239508;23;20016;-76
2022/07/17 03:29:01;;;;;;;5.05;3.70;;;11.00;99.90;;;;;;6213693;23;20024;-75
2022/07/17 03:31:27;;;;;;;8.38;3.67;;;11.00;99.90;;;;;;6239577;23;20337;-73
2022/07/17 03:33:53;;;;;;;6.25;3.00;;;11.00;99.90;;;;;;6213161;23;20066;-75
2022/07/17 03:36:18;;;;;;;7.13;4.13;;;11.00;99.90;;;;;;6214497;23;20016;-74
2022/07/17 03:38:44;;;;;;;6.75;3.85;;;11.10;99.90;;;;;;6214351;23;20051;-76
2022/07/17 03:41:10;;;;;;;8.18;3.60;;;11.30;99.90;;;;;;6213593;23;20008;-75
2022/07/17 03:43:35;;;;;;;8.10;3.90;;;11.20;99.90;;;;;;6239502;23;20294;-76
2022/07/17 03:46:02;;;;;;;5.63;3.53;;;11.30;99.90;;;;;;6214375;23;20051;-74
2022/07/17 03:48:28;;;;;;;7.85;4.10;;;11.30;99.90;;;;;;6240111;23;20016;-76
2022/07/17 03:50:54;;;;;;;8.15;4.43;;;11.30;99.90;;;;;;6188088;23;20310;-74
2022/07/17 03:53:20;;;;;;;9.93;4.07;;;11.30;99.90;;;;;;6234144;23;20027;-74
2022/07/17 03:55:45;;;;;;;7.35;4.28;;;11.40;99.90;;;;;;6209447;23;20456;-76
2022/07/17 03:58:11;;;;;;;6.13;4.38;;;11.40;99.90;;;;;;6186550;23;20016;-74
2022/07/17 04:00:37;;;;;;;10.27;5.18;;;11.20;99.90;;;;;;6211002;23;20547;-76
2022/07/17 04:03:02;;;;;;;8.63;5.05;;;11.40;99.90;;;;;;6233307;23;20016;-75
2022/07/17 04:05:28;;;;;;;6.88;5.10;;;11.50;99.90;;;;;;6213282;23;20008;-76
2022/07/17 04:07:54;;;;;;;8.32;4.55;;;11.50;99.90;;;;;;6238318;23;20046;-77
2022/07/17 04:10:20;;;;;;;6.68;4.50;;;11.60;99.90;;;;;;6214382;23;20099;-77
2022/07/17 04:12:45;;;;;;;8.30;4.32;;;11.70;99.90;;;;;;6212856;23;20091;-76
2022/07/17 04:15:11;;;;;;;8.80;4.60;;;11.80;99.90;;;;;;6236231;23;20020;-76
2022/07/17 04:17:37;;;;;;;8.68;5.45;;;11.80;99.90;;;;;;6214577;23;20317;-75
2022/07/17 04:20:03;;;;;;;7.88;5.03;;;11.80;99.90;;;;;;6236864;23;20015;-78
2022/07/17 04:22:29;;;;;;;10.18;5.13;;;11.90;99.90;;;;;;6237657;23;20014;-75
2022/07/17 04:24:55;;;;;;;7.57;4.82;;;11.80;99.90;;;;;;6207157;23;20016;-75
2022/07/17 04:27:20;;;;;;;11.13;5.35;;;11.80;99.90;;;;;;6208971;23;20016;-74
2022/07/17 04:29:46;;;;;;;4.95;4.38;;;11.80;99.90;;;;;;6181474;23;20360;-76
2022/07/17 04:32:12;;;;;;;8.95;4.65;;;11.80;99.90;;;;;;6210768;23;20019;-75
2022/07/17 04:34:37;;;;;;;6.18;4.10;;;11.80;99.90;;;;;;6212314;23;20051;-75
2022/07/17 04:37:04;;;;;;;5.72;3.25;;;11.80;99.90;;;;;;6238630;23;20023;-75
2022/07/17 04:39:30;;;;;;;5.95;3.65;;;11.80;99.90;;;;;;6237497;23;20065;-76
2022/07/17 04:41:56;;;;;;;6.15;3.83;;;11.80;99.90;;;;;;6234882;23;20121;-78
2022/07/17 04:44:22;;;;;;;6.55;4.22;;;11.80;99.90;;;;;;6239055;23;20020;-78
2022/07/17 04:46:48;;;;;;;7.95;4.82;;;11.80;99.90;;;;;;6214584;23;20082;-77
2022/07/17 04:49:14;;;;;;;7.78;4.90;;;11.80;99.90;;;;;;6235813;23;20024;-77
2022/07/17 04:51:40;;;;;;;8.25;4.47;;;12.00;99.90;;;;;;6236968;23;20387;-77
2022/07/17 04:54:06;;;;;;;7.78;4.57;;;12.00;99.90;;;;;;6237474;23;20023;-77
2022/07/17 04:56:31;;;;;;;8.65;4.20;;;12.10;99.90;;;;;;6237968;23;20022;-76
2022/07/17 04:58:57;;;;;;;7.25;3.75;;;12.10;99.90;;;;;;6212437;23;20016;-77
2022/07/17 05:01:23;;;;;;;7.85;3.95;;;12.20;99.90;;;;;;6239445;23;20302;-77
2022/07/17 05:03:48;;;;;;;6.88;3.20;;;12.30;99.90;;;;;;6213054;23;20020;-77
2022/07/17 05:06:14;;;;;;;4.25;3.00;;;12.30;99.90;;;;;;6188260;23;20091;-78
2022/07/17 05:08:40;;;;;;;8.35;3.10;;;12.40;99.90;;;;;;6187524;23;20023;-76
2022/07/17 05:11:06;;;;;;;7.55;2.88;;;12.30;99.90;;;;;;6238863;23;20017;-75
2022/07/17 05:13:31;;;;;;;6.55;2.88;;;12.40;99.90;;;;;;6238956;23;20093;-76
2022/07/17 05:15:57;;;;;;;5.78;2.63;;;12.50;99.90;;;;;;6237740;23;20321;-76
2022/07/17 05:18:23;;;;;;;4.30;2.30;;;12.60;99.90;;;;;;6214982;23;20349;-76
2022/07/17 05:20:48;;;;;;;6.13;2.40;;;12.60;99.90;;;;;;6186078;23;20016;-76
2022/07/17 05:23:14;;;;;;;6.30;2.22;;;12.70;99.90;;;;;;6212644;23;20400;-75
2022/07/17 05:25:40;;;;;;;6.13;2.28;;;12.70;99.90;;;;;;6187059;23;20031;-75
2022/07/17 05:28:05;;;;;;;6.43;2.55;;;12.80;99.90;;;;;;6237062;23;20016;-77
2022/07/17 05:30:31;;;;;;;5.78;2.50;;;12.80;99.90;;;;;;6215438;23;20024;-75
2022/07/17 05:32:57;;;;;;;3.47;2.15;;;12.80;99.90;;;;;;6216220;23;20881;-77
2022/07/17 05:35:23;;;;;;;5.15;2.40;;;12.90;99.90;;;;;;6241190;23;20034;-77
2022/07/17 05:37:48;;;;;;;3.90;2.55;;;12.90;99.90;;;;;;6240453;23;20023;-78
2022/07/17 05:40:14;;;;;;;4.68;2.20;;;13.00;99.90;;;;;;6240498;23;20314;-77
2022/07/17 05:42:40;;;;;;;4.35;2.50;;;13.10;99.90;;;;;;6241385;23;20153;-77
2022/07/17 05:45:06;;;;;;;5.60;2.15;;;13.20;99.90;;;;;;6189808;23;20303;-77
2022/07/17 05:47:32;;;;;;;6.18;2.38;;;13.30;99.90;;;;;;6217148;23;20341;-77
2022/07/17 05:49:58;;;;;;;5.22;2.03;;;13.40;99.90;;;;;;6239559;23;20020;-76
2022/07/17 05:52:23;;;;;;;5.18;2.72;;;13.40;99.90;;;;;;6214705;23;20012;-77
2022/07/17 05:54:49;;;;;;;5.25;2.15;;;13.40;99.90;;;;;;6214682;23;20016;-76
2022/07/17 05:57:15;;;;;;;3.05;1.90;;;13.40;99.90;;;;;;6240516;23;20020;-77
2022/07/17 05:59:41;;;;;;;4.65;2.40;;;13.50;99.90;;;;;;6191149;23;20043;-76
2022/07/17 06:02:07;;;;;;;6.15;2.30;;;13.40;99.90;;;;;;6215198;23;20086;-77
2022/07/17 06:04:32;;;;;;;5.97;2.15;;;13.50;99.90;;;;;;6216843;23;20557;-75
2022/07/17 06:06:58;;;;;;;3.00;1.83;;;13.50;99.90;;;;;;6215211;23;20360;-75
2022/07/17 06:09:24;;;;;;;6.13;1.77;;;13.60;99.90;;;;;;6214597;23;20099;-75
2022/07/17 06:11:49;;;;;;;6.40;2.42;;;13.80;99.90;;;;;;6215089;23;20015;-77
2022/07/17 06:14:15;;;;;;;7.13;2.30;;;13.90;99.90;;;;;;6215730;23;20611;-77
2022/07/17 06:16:42;;;;;;;4.57;1.80;;;14.00;99.90;;;;;;6214698;23;20016;-76
2022/07/17 06:19:08;;;;;;;4.80;1.88;;;14.10;99.90;;;;;;6239621;23;20066;-77
2022/07/17 06:21:33;;;;;;;3.40;1.55;;;14.10;99.90;;;;;;6188053;23;20099;-76
2022/07/17 06:24:01;;;;;;;3.30;1.70;;;14.20;99.90;;;;;;6209669;23;20449;-78
2022/07/17 06:26:26;;;;;;;2.58;1.63;;;14.30;99.90;;;;;;6216622;23;20012;-79
2022/07/17 06:28:52;;;;;;;5.13;1.30;;;14.40;99.90;;;;;;6216950;23;20066;-77
2022/07/17 06:31:18;;;;;;;4.57;1.33;;;14.50;99.90;;;;;;6240564;23;20020;-77
2022/07/17 06:33:44;;;;;;;2.63;1.70;;;14.60;99.90;;;;;;6189647;23;20095;-76
2022/07/17 06:36:10;;;;;;;5.70;1.70;;;14.80;99.90;;;;;;6189129;23;20055;-77
2022/07/17 06:38:35;;;;;;;4.65;1.40;;;15.00;99.90;;;;;;6215222;23;20463;-79
2022/07/17 06:41:02;;;;;;;6.93;1.50;;;15.10;99.90;;;;;;6189220;23;20016;-77
2022/07/17 06:43:28;;;;;;;4.80;1.42;;;15.30;99.90;;;;;;6213966;23;20044;-77
2022/07/17 06:45:54;;;;;;;4.93;1.67;;;15.40;99.90;;;;;;6189717;23;20314;-77
2022/07/17 06:48:23;;;;;;;3.97;1.40;;;15.30;99.90;;;;;;6240012;23;20433;-78
2022/07/17 06:50:48;;;;;;;4.63;1.50;;;15.30;99.90;;;;;;6214518;23;20027;-76
2022/07/17 06:53:14;;;;;;;6.43;1.65;;;15.40;99.90;;;;;;6212938;23;20020;-78
2022/07/17 06:55:41;;;;;;;2.95;1.48;;;15.30;99.90;;;;;;6213377;23;20444;-77
2022/07/17 06:58:06;;;;;;;2.47;1.35;;;15.30;99.90;;;;;;6239233;23;20048;-78
2022/07/17 07:00:32;;;;;;;3.15;1.23;;;15.40;99.90;;;;;;6214147;23;20012;-75
2022/07/17 07:02:58;;;;;;;7.25;1.33;;;15.40;99.90;;;;;;6213967;23;20445;-77
2022/07/17 07:05:24;;;;;;;4.90;1.83;;;15.50;99.90;;;;;;6213143;23;20020;-76
2022/07/17 07:07:50;;;;;;;6.13;1.40;;;15.50;99.90;;;;;;6188931;23;20012;-76
2022/07/17 07:10:16;;;;;;;7.85;1.30;;;15.70;99.90;;;;;;6216471;23;20020;-77
2022/07/17 07:12:42;;;;;;;5.50;1.60;;;15.70;99.90;;;;;;6240270;23;20391;-77
2022/07/17 07:15:09;;;;;;;3.58;1.33;;;15.70;99.90;;;;;;6216061;23;20044;-76
2022/07/17 07:17:35;;;;;;;2.17;1.20;;;15.80;99.90;;;;;;6238689;23;20051;-75
2022/07/17 07:20:03;;;;;;;3.22;1.58;;;16.00;99.90;;;;;;6241984;23;20361;-76
2022/07/17 07:22:29;;;;;;;3.53;1.20;;;16.10;99.90;;;;;;6217354;23;20012;-76
2022/07/17 07:24:55;;;;;;;4.60;1.17;;;16.10;99.90;;;;;;6240566;23;20012;-77
2022/07/17 07:27:21;;;;;;;5.65;1.80;;;16.10;99.90;;;;;;6215681;23;20023;-77
2022/07/17 07:29:47;;;;;;;5.18;1.35;;;16.30;99.90;;;;;;6241239;23;20016;-77
2022/07/17 07:32:13;;;;;;;5.32;1.45;;;16.30;99.90;;;;;;6190095;23;20020;-75
2022/07/17 07:34:38;;;;;;;4.38;1.40;;;16.40;99.90;;;;;;6190038;23;20350;-77
2022/07/17 07:37:04;;;;;;;5.60;1.60;;;16.60;99.90;;;;;;6216077;23;20109;-78
2022/07/17 07:39:30;;;;;;;3.92;1.40;;;16.70;99.90;;;;;;6190189;23;20345;-77
2022/07/17 07:41:56;;;;;;;4.35;1.58;;;16.80;99.90;;;;;;6241609;23;20100;-75
2022/07/17 07:44:21;;;;;;;3.63;1.50;;;17.10;99.90;;;;;;6241020;23;20009;-76
2022/07/17 07:46:47;;;;;;;6.85;1.77;;;17.20;99.90;;;;;;6241826;23;20508;-78
2022/07/17 07:49:14;;;;;;;6.03;1.70;;;17.30;99.90;;;;;;6240589;23;20047;-79
2022/07/17 07:51:40;;;;;;;5.18;1.35;;;17.00;99.90;;;;;;6217226;23;20471;-75
2022/07/17 07:54:06;;;;;;;5.03;1.30;;;17.30;99.90;;;;;;6216554;23;20016;-79
2022/07/17 07:56:31;;;;;;;5.35;1.40;;;17.30;99.90;;;;;;6191915;23;20452;-75
2022/07/17 07:58:57;;;;;;;3.35;1.20;;;17.30;99.90;;;;;;6190633;23;20020;-76
2022/07/17 08:01:23;;;;;;;5.18;1.55;;;17.30;99.90;;;;;;6240479;23;21128;-78
2022/07/17 08:03:49;;;;;;;4.72;1.30;;;17.30;99.90;;;;;;6192248;23;20008;-78
2022/07/17 08:06:15;;;;;;;3.97;1.35;;;17.30;99.90;;;;;;6215617;23;20379;-74
2022/07/17 08:08:41;;;;;;;2.25;1.38;;;17.40;99.90;;;;;;6189823;23;20012;-79
2022/07/17 08:11:07;;;;;;;5.00;1.30;;;17.60;99.90;;;;;;6212313;23;20016;-77
2022/07/17 08:13:33;;;;;;;4.97;1.35;;;17.60;99.90;;;;;;6240138;23;20012;-78
2022/07/17 08:15:58;;;;;;;5.57;1.40;;;17.70;99.90;;;;;;6215883;23;20020;-78
2022/07/17 08:18:25;;;;;;;4.80;1.23;;;17.80;99.90;;;;;;6240173;23;20016;-77
2022/07/17 08:20:52;;;;;;;2.78;1.25;;;17.80;99.90;;;;;;6214758;23;20840;-76
2022/07/17 08:23:18;;;;;;;3.20;1.10;;;17.90;99.90;;;;;;6215371;23;20019;-74
2022/07/17 08:25:43;;;;;;;8.82;1.42;;;18.00;99.90;;;;;;6241087;23;20016;-75
2022/07/17 08:28:09;;;;;;;6.40;1.27;;;18.10;99.90;;;;;;6189270;23;20015;-77
2022/07/17 08:30:36;;;;;;;4.10;1.60;;;18.00;99.90;;;;;;6214065;23;20051;-78
2022/07/17 08:33:04;;;;;;;3.92;1.50;;;18.20;99.90;;;;;;6239963;23;20047;-77
2022/07/17 08:35:29;;;;;;;2.88;1.08;;;18.00;99.90;;;;;;6215567;23;20016;-77
2022/07/17 08:37:55;;;;;;;7.45;1.90;;;18.10;99.90;;;;;;6215041;23;20019;-75
2022/07/17 08:40:25;;;;;;;4.22;1.27;;;18.20;99.90;;;;;;6189582;23;20695;-75
2022/07/17 08:42:51;;;;;;;5.47;1.30;;;18.20;99.90;;;;;;6240308;23;20073;-78
2022/07/17 08:45:18;;;;;;;5.15;1.27;;;18.10;99.90;;;;;;6240553;23;20014;-76
2022/07/17 08:47:44;;;;;;;1.80;1.25;;;18.10;99.90;;;;;;6240737;23;20325;-79
2022/07/17 08:50:11;;;;;;;4.50;1.10;;;18.20;99.90;;;;;;6240349;23;20015;-80
2022/07/17 08:52:39;;;;;;;3.03;1.40;;;18.30;99.90;;;;;;6239052;23;20074;-75
2022/07/17 08:55:12;;;;;;;5.93;1.48;;;18.20;99.90;;;;;;6241526;23;20020;-75
2022/07/17 08:57:40;;;;;;;2.58;1.25;;;18.30;99.90;;;;;;6239886;23;20027;-75
2022/07/17 09:00:07;;;;;;;5.18;1.83;;;18.50;99.90;;;;;;6240478;23;20047;-75
2022/07/17 09:02:33;;;;;;;4.45;1.25;;;18.60;99.90;;;;;;6241772;23;20019;-76
2022/07/17 09:04:59;;;;;;;5.07;1.38;;;18.90;99.90;;;;;;6217288;23;20321;-76
2022/07/17 09:07:25;;;;;;;5.60;1.38;;;19.10;99.90;;;;;;6242831;23;20012;-75
2022/07/17 09:09:51;;;;;;;3.42;1.35;;;19.10;99.90;;;;;;6241018;23;20023;-76
2022/07/17 09:12:17;;;;;;;2.33;1.20;;;19.00;99.90;;;;;;6241044;23;20098;-77
2022/07/17 09:14:43;;;;;;;2.97;1.65;;;19.00;99.90;;;;;;6218129;23;20408;-77
2022/07/17 09:17:11;;;;;;;2.05;1.10;;;18.80;99.90;;;;;;6217925;23;20018;-75
2022/07/17 09:19:41;;;;;;;2.72;1.27;;;19.60;99.90;;;;;;6242742;23;20389;-77
2022/07/17 09:22:10;;;;;;;5.32;1.40;;;19.90;99.90;;;;;;6215990;23;20555;-76
2022/07/17 09:24:40;;;;;;;4.82;1.35;;;20.40;99.90;;;;;;6217347;23;20019;-78
2022/07/17 09:27:06;;;;;;;6.45;1.90;;;20.20;99.90;;;;;;6217652;23;20526;-78
2022/07/17 09:29:32;;;;;;;6.07;1.23;;;20.30;99.90;;;;;;6216738;23;20076;-77
2022/07/17 09:31:58;;;;;;;4.20;1.35;;;20.80;99.90;;;;;;6217525;23;20074;-76
2022/07/17 09:34:23;;;;;;;6.18;1.23;;;21.10;99.90;;;;;;6242009;23;20016;-79
2022/07/17 09:37:02;;;;;;;3.70;1.10;;;21.60;99.90;;;;;;6193062;23;20498;-77
2022/07/17 09:39:35;;;;;;;3.30;1.35;;;21.60;99.90;;;;;;6241202;23;20016;-79
2022/07/17 09:42:01;;;;;;;2.50;1.00;;;22.00;99.90;;;;;;6242488;23;20070;-76
2022/07/17 09:44:27;;;;;;;4.65;1.50;;;22.30;99.90;;;;;;6190867;23;20020;-79
2022/07/17 09:46:53;;;;;;;1.52;1.00;;;22.20;99.90;;;;;;6217213;23;20047;-78
2022/07/17 09:49:25;;;;;;;2.50;1.15;;;21.80;99.90;;;;;;6241817;23;20016;-78
2022/07/17 09:51:51;;;;;;;2.42;1.30;;;22.10;99.90;;;;;;6242327;23;20443;-78
2022/07/17 09:54:21;;;;;;;2.45;1.50;;;22.50;99.90;;;;;;6214128;23;20016;-80
2022/07/17 09:56:50;;;;;;;2.78;1.23;;;22.60;99.90;;;;;;6242100;23;20012;-77
2022/07/17 09:59:17;;;;;;;3.05;1.50;;;22.20;99.90;;;;;;6240660;23;20070;-79
2022/07/17 10:01:44;;;;;;;3.65;1.50;;;22.20;99.90;;;;;;6216859;23;20012;-76
2022/07/17 10:04:14;;;;;;;5.00;1.27;;;22.50;99.90;;;;;;6215513;23;20091;-77
2022/07/17 10:06:40;;;;;;;4.07;1.70;;;22.50;99.90;;;;;;6241743;23;20078;-78
2022/07/17 10:09:05;;;;;;;3.50;1.25;;;22.20;99.90;;;;;;6215834;23;20012;-79
2022/07/17 10:11:35;;;;;;;3.28;1.48;;;23.10;99.90;;;;;;6239711;23;20066;-76
2022/07/17 10:14:12;;;;;;;2.05;1.10;;;23.20;99.90;;;;;;6238509;23;20344;-78
2022/07/17 10:16:38;;;;;;;4.65;1.88;;;22.50;99.90;;;;;;6212267;23;20008;-78
2022/07/17 10:19:24;;;;;;;5.15;1.58;;;22.70;99.90;;;;;;6238197;23;20020;-77
2022/07/17 10:22:01;;;;;;;2.45;1.35;;;22.60;99.90;;;;;;6211788;23;20027;-78
2022/07/17 10:24:29;;;;;;;4.10;1.40;;;22.50;99.90;;;;;;6240585;23;20016;-77
2022/07/17 10:26:55;;;;;;;2.17;1.17;;;22.80;99.90;;;;;;6239172;23;20020;-79
2022/07/17 10:29:36;;;;;;;3.30;1.38;;;23.00;99.90;;;;;;6212931;23;20016;-77
2022/07/17 10:32:07;;;;;;;2.65;1.20;;;22.80;99.90;;;;;;6189080;23;20044;-77
2022/07/17 10:34:38;;;;;;;3.35;1.27;;;22.90;99.90;;;;;;6213415;23;20020;-73
2022/07/17 10:37:25;;;;;;;4.28;1.55;;;22.90;99.90;;;;;;6188153;23;20024;-77
2022/07/17 10:40:03;;;;;;;2.78;1.27;;;22.50;99.90;;;;;;6188874;23;20044;-77
2022/07/17 10:42:54;;;;;;;3.40;1.27;;;22.80;99.90;;;;;;6188014;23;20451;-77
2022/07/17 10:45:23;;;;;;;2.45;1.40;;;22.80;99.90;;;;;;6214484;23;20044;-78
2022/07/17 10:48:01;;;;;;;2.28;1.30;;;23.40;99.90;;;;;;6187251;23;20023;-77
2022/07/17 10:50:36;;;;;;;3.50;1.40;;;23.50;99.90;;;;;;6214315;23;20395;-77
2022/07/17 10:53:18;;;;;;;2.55;1.38;;;23.90;99.90;;;;;;6187159;23;20105;-76
2022/07/17 10:55:46;;;;;;;3.40;1.27;;;24.30;99.90;;;;;;6184114;23;20012;-77
2022/07/17 10:58:23;;;;;;;2.88;1.30;;;24.10;99.90;;;;;;6186088;23;20015;-76
2022/07/17 11:01:14;;;;;;;1.52;1.10;;;23.80;99.90;;;;;;6185037;23;20016;-76
2022/07/17 11:03:51;;;;;;;2.65;1.35;;;23.70;99.90;;;;;;6183696;23;20012;-75
2022/07/17 11:06:31;;;;;;;2.78;1.23;;;23.40;99.90;;;;;;6185862;23;20023;-75
2022/07/17 11:09:04;;;;;;;2.17;1.30;;;24.10;99.90;;;;;;6210406;23;20070;-76
2022/07/17 11:11:51;;;;;;;4.07;1.40;;;23.50;99.90;;;;;;6185708;23;20008;-78
2022/07/17 11:14:21;;;;;;;3.92;1.25;;;23.80;99.90;;;;;;6160351;23;20020;-75
2022/07/17 11:16:53;;;;;;;3.13;1.30;;;23.80;99.90;;;;;;6211664;23;20437;-76
2022/07/17 11:19:28;;;;;;;3.47;1.33;;;23.00;99.90;;;;;;6211992;23;20016;-78
2022/07/17 11:21:55;;;;;;;2.63;1.40;;;22.80;99.90;;;;;;6213526;23;20605;-75
2022/07/17 11:24:21;;;;;;;2.55;1.10;;;22.80;99.90;;;;;;6189322;23;20472;-78
2022/07/17 11:26:50;;;;;;;2.10;1.30;;;23.00;99.90;;;;;;6214023;23;20018;-76
2022/07/17 11:29:16;;;;;;;3.75;1.80;;;22.70;99.90;;;;;;6215006;23;20440;-76
2022/07/17 11:31:43;;;;;;;3.85;1.50;;;23.10;99.90;;;;;;6188725;23;20016;-76
2022/07/17 11:34:11;;;;;;;3.20;1.30;;;23.30;99.90;;;;;;6162648;23;20016;-81
2022/07/17 11:36:41;;;;;;;2.58;1.48;;;23.50;99.90;;;;;;6214434;23;20105;-77
2022/07/17 11:39:13;;;;;;;2.65;1.30;;;23.70;99.90;;;;;;6188021;23;20051;-78
2022/07/17 11:41:47;;;;;;;2.92;1.30;;;23.70;99.90;;;;;;6187850;23;20023;-76
2022/07/17 11:44:16;;;;;;;3.38;1.33;;;23.90;99.90;;;;;;6188743;23;20048;-76
2022/07/17 11:46:45;;;;;;;1.77;1.10;;;23.90;99.90;;;;;;6214076;23;20040;-77
2022/07/17 11:49:23;;;;;;;3.40;1.63;;;23.80;99.90;;;;;;6189076;23;20023;-76
2022/07/17 11:51:48;;;;;;;2.80;1.35;;;24.00;99.90;;;;;;6188797;23;20016;-78
2022/07/17 11:54:16;;;;;;;2.08;1.38;;;23.80;99.90;;;;;;6214485;23;20011;-77
2022/07/17 11:56:51;;;;;;;2.25;1.20;;;24.00;99.90;;;;;;6189782;23;20023;-77
2022/07/17 11:59:28;;;;;;;3.13;1.45;;;23.80;99.90;;;;;;6214448;23;20091;-77
2022/07/17 12:01:54;;;;;;;3.05;1.60;;;24.00;95.30;;;;;;6188450;23;20034;-79
2022/07/17 12:04:20;;;;;;;4.43;1.50;;;24.30;98.30;;;;;;6212479;23;20012;-77
2022/07/17 12:06:47;;;;;;;2.80;1.30;;;24.40;99.30;;;;;;6186235;23;20343;-78
2022/07/17 12:09:13;;;;;;;3.17;1.60;;;24.60;98.30;;;;;;6162987;23;20012;-78
2022/07/17 12:11:46;;;;;;;4.00;1.70;;;24.10;99.20;;;;;;6185607;23;20320;-78
2022/07/17 12:14:12;;;;;;;2.37;1.40;;;24.40;94.20;;;;;;6211928;23;20023;-77
2022/07/17 12:16:38;;;;;;;4.90;1.70;;;24.40;97.70;;;;;;6212678;23;20239;-77
2022/07/17 12:19:19;;;;;;;3.05;1.48;;;24.90;95.00;;;;;;6212920;23;20420;-76
2022/07/17 12:22:02;;;;;;;2.80;1.50;;;24.70;82.80;;;;;;6188691;23;20070;-77
2022/07/17 12:24:31;;;;;;;3.40;1.60;;;24.20;94.00;;;;;;6211458;23;20016;-79
2022/07/17 12:27:00;;;;;;;2.70;1.42;;;24.00;97.10;;;;;;6212802;23;20023;-77
2022/07/17 12:29:28;;;;;;;3.08;1.35;;;23.80;98.30;;;;;;6188107;23;20162;-78
2022/07/17 12:32:01;;;;;;;2.15;1.60;;;24.10;99.90;;;;;;6214763;23;20493;-77
2022/07/17 12:34:26;;;;;;;2.40;1.58;;;23.30;94.50;;;;;;6211498;23;20032;-78
2022/07/17 12:36:52;;;;;;;3.80;1.90;;;24.00;98.60;;;;;;6185882;23;20023;-79
2022/07/17 12:39:18;;;;;;;2.53;1.77;;;24.10;98.30;;;;;;6213940;23;20016;-77
2022/07/17 12:41:44;;;;;;;2.58;1.50;;;24.30;91.10;;;;;;6163471;23;20507;-76
2022/07/17 12:44:10;;;;;;;2.90;1.60;;;23.70;95.90;;;;;;6163363;23;20519;-77
2022/07/17 12:46:36;;;;;;;2.92;1.70;;;24.40;95.50;;;;;;6188109;23;20043;-76